sensor_id;sensor_type;location;lat;lon;timestamp;P1;durP1;ratioP1;P2;durP2;ratioP2
40995;SDS011;26723;57.478;12.066;2022-11-15T00:02:07;2.83;;;2.63;;
40995;SDS011;26723;57.478;12.066;2022-11-15T00:05:35;2.90;;;2.70;;
40995;SDS011;26723;57.478;12.066;2022-11-15T00:09:02;3.30;;;2.60;;
40995;SDS011;26723;57.478;12.066;2022-11-15T00:12:29;5.57;;;3.03;;
40995;SDS011;26723;57.478;12.066;2022-11-15T00:15:56;3.00;;;2.50;;
40995;SDS011;26723;57.478;12.066;2022-11-15T00:19:24;4.60;;;3.03;;
40995;SDS011;26723;57.478;12.066;2022-11-15T00:22:51;2.83;;;2.40;;
40995;SDS011;26723;57.478;12.066;2022-11-15T00:26:18;4.10;;;3.20;;
40995;SDS011;26723;57.478;12.066;2022-11-15T00:29:46;3.00;;;2.80;;
40995;SDS011;26723;57.478;12.066;2022-11-15T00:33:12;3.40;;;2.70;;
40995;SDS011;26723;57.478;12.066;2022-11-15T00:36:39;3.40;;;3.10;;
40995;SDS011;26723;57.478;12.066;2022-11-15T00:40:08;3.57;;;2.60;;
40995;SDS011;26723;57.478;12.066;2022-11-15T00:43:37;3.23;;;2.90;;
40995;SDS011;26723;57.478;12.066;2022-11-15T00:47:05;2.70;;;2.50;;
40995;SDS011;26723;57.478;12.066;2022-11-15T00:50:31;2.77;;;2.57;;
40995;SDS011;26723;57.478;12.066;2022-11-15T00:54:00;2.80;;;2.60;;
40995;SDS011;26723;57.478;12.066;2022-11-15T00:57:29;3.27;;;2.70;;
40995;SDS011;26723;57.478;12.066;2022-11-15T01:00:56;2.90;;;2.70;;
40995;SDS011;26723;57.478;12.066;2022-11-15T01:04:23;2.83;;;2.63;;
40995;SDS011;26723;57.478;12.066;2022-11-15T01:07:51;2.83;;;2.60;;
40995;SDS011;26723;57.478;12.066;2022-11-15T01:11:17;3.27;;;2.97;;
40995;SDS011;26723;57.478;12.066;2022-11-15T01:14:45;2.50;;;2.40;;
40995;SDS011;26723;57.478;12.066;2022-11-15T01:18:12;3.00;;;2.80;;
40995;SDS011;26723;57.478;12.066;2022-11-15T01:21:39;2.80;;;2.60;;
40995;SDS011;26723;57.478;12.066;2022-11-15T01:25:06;3.80;;;2.93;;
40995;SDS011;26723;57.478;12.066;2022-11-15T01:28:33;3.57;;;2.90;;
40995;SDS011;26723;57.478;12.066;2022-11-15T01:32:03;2.77;;;2.57;;
40995;SDS011;26723;57.478;12.066;2022-11-15T01:35:29;2.80;;;2.60;;
40995;SDS011;26723;57.478;12.066;2022-11-15T01:38:57;3.50;;;2.93;;
40995;SDS011;26723;57.478;12.066;2022-11-15T01:42:24;3.10;;;2.90;;
40995;SDS011;26723;57.478;12.066;2022-11-15T01:45:52;3.20;;;2.90;;
40995;SDS011;26723;57.478;12.066;2022-11-15T01:49:25;2.70;;;2.50;;
40995;SDS011;26723;57.478;12.066;2022-11-15T01:52:55;3.03;;;2.70;;
40995;SDS011;26723;57.478;12.066;2022-11-15T01:56:23;3.00;;;2.70;;
40995;SDS011;26723;57.478;12.066;2022-11-15T01:59:53;3.00;;;2.60;;
40995;SDS011;26723;57.478;12.066;2022-11-15T02:03:20;2.70;;;2.50;;
40995;SDS011;26723;57.478;12.066;2022-11-15T02:06:54;2.93;;;2.43;;
40995;SDS011;26723;57.478;12.066;2022-11-15T02:10:23;3.00;;;2.77;;
40995;SDS011;26723;57.478;12.066;2022-11-15T02:13:50;2.70;;;2.50;;
40995;SDS011;26723;57.478;12.066;2022-11-15T02:17:27;2.87;;;2.67;;
40995;SDS011;26723;57.478;12.066;2022-11-15T02:21:10;3.00;;;2.70;;
40995;SDS011;26723;57.478;12.066;2022-11-15T02:24:50;3.97;;;2.77;;
40995;SDS011;26723;57.478;12.066;2022-11-15T02:32:21;3.37;;;3.07;;
40995;SDS011;26723;57.478;12.066;2022-11-15T02:35:57;3.80;;;2.77;;
40995;SDS011;26723;57.478;12.066;2022-11-15T02:39:27;2.90;;;2.70;;
40995;SDS011;26723;57.478;12.066;2022-11-15T02:43:04;3.57;;;2.97;;
40995;SDS011;26723;57.478;12.066;2022-11-15T02:46:53;3.13;;;2.83;;
40995;SDS011;26723;57.478;12.066;2022-11-15T02:50:40;3.47;;;2.80;;
40995;SDS011;26723;57.478;12.066;2022-11-15T02:54:10;3.20;;;3.00;;
40995;SDS011;26723;57.478;12.066;2022-11-15T02:57:39;3.10;;;2.80;;
40995;SDS011;26723;57.478;12.066;2022-11-15T03:01:12;3.20;;;2.60;;
40995;SDS011;26723;57.478;12.066;2022-11-15T03:04:48;3.67;;;3.23;;
40995;SDS011;26723;57.478;12.066;2022-11-15T03:08:25;3.23;;;2.87;;
40995;SDS011;26723;57.478;12.066;2022-11-15T03:11:58;3.20;;;2.90;;
40995;SDS011;26723;57.478;12.066;2022-11-15T03:15:31;3.70;;;3.30;;
40995;SDS011;26723;57.478;12.066;2022-11-15T03:19:02;3.83;;;3.40;;
40995;SDS011;26723;57.478;12.066;2022-11-15T03:22:35;4.33;;;3.10;;
40995;SDS011;26723;57.478;12.066;2022-11-15T03:26:08;4.03;;;3.67;;
40995;SDS011;26723;57.478;12.066;2022-11-15T03:29:38;3.70;;;3.40;;
40995;SDS011;26723;57.478;12.066;2022-11-15T03:33:08;3.73;;;2.87;;
40995;SDS011;26723;57.478;12.066;2022-11-15T03:36:36;4.17;;;3.40;;
40995;SDS011;26723;57.478;12.066;2022-11-15T03:40:05;3.67;;;3.37;;
40995;SDS011;26723;57.478;12.066;2022-11-15T03:43:36;3.77;;;3.20;;
40995;SDS011;26723;57.478;12.066;2022-11-15T03:47:10;3.10;;;2.90;;
40995;SDS011;26723;57.478;12.066;2022-11-15T03:50:42;3.50;;;3.20;;
40995;SDS011;26723;57.478;12.066;2022-11-15T03:54:11;4.87;;;3.33;;
40995;SDS011;26723;57.478;12.066;2022-11-15T03:57:38;3.87;;;3.43;;
40995;SDS011;26723;57.478;12.066;2022-11-15T04:01:06;5.13;;;3.20;;
40995;SDS011;26723;57.478;12.066;2022-11-15T04:04:34;3.60;;;3.30;;
40995;SDS011;26723;57.478;12.066;2022-11-15T04:08:00;3.67;;;3.37;;
40995;SDS011;26723;57.478;12.066;2022-11-15T04:11:27;4.03;;;3.63;;
40995;SDS011;26723;57.478;12.066;2022-11-15T04:14:54;4.00;;;3.60;;
40995;SDS011;26723;57.478;12.066;2022-11-15T04:18:34;4.70;;;4.00;;
40995;SDS011;26723;57.478;12.066;2022-11-15T04:22:00;4.40;;;4.00;;
40995;SDS011;26723;57.478;12.066;2022-11-15T04:25:45;6.07;;;4.00;;
40995;SDS011;26723;57.478;12.066;2022-11-15T04:29:13;4.23;;;3.73;;
40995;SDS011;26723;57.478;12.066;2022-11-15T04:32:58;4.13;;;3.73;;
40995;SDS011;26723;57.478;12.066;2022-11-15T04:36:26;4.57;;;4.17;;
40995;SDS011;26723;57.478;12.066;2022-11-15T04:40:11;6.47;;;4.10;;
40995;SDS011;26723;57.478;12.066;2022-11-15T04:43:37;4.30;;;3.70;;
40995;SDS011;26723;57.478;12.066;2022-11-15T04:47:04;5.57;;;4.03;;
40995;SDS011;26723;57.478;12.066;2022-11-15T04:50:31;6.17;;;4.10;;
40995;SDS011;26723;57.478;12.066;2022-11-15T04:53:59;4.93;;;4.23;;
40995;SDS011;26723;57.478;12.066;2022-11-15T04:57:26;5.43;;;4.53;;
40995;SDS011;26723;57.478;12.066;2022-11-15T05:00:52;4.80;;;4.33;;
40995;SDS011;26723;57.478;12.066;2022-11-15T05:04:19;4.93;;;3.83;;
40995;SDS011;26723;57.478;12.066;2022-11-15T05:07:46;4.43;;;4.03;;
40995;SDS011;26723;57.478;12.066;2022-11-15T05:11:15;4.90;;;4.37;;
40995;SDS011;26723;57.478;12.066;2022-11-15T05:14:41;5.97;;;4.13;;
40995;SDS011;26723;57.478;12.066;2022-11-15T05:18:08;5.50;;;4.10;;
40995;SDS011;26723;57.478;12.066;2022-11-15T05:21:35;4.60;;;4.20;;
40995;SDS011;26723;57.478;12.066;2022-11-15T05:25:03;6.60;;;4.10;;
40995;SDS011;26723;57.478;12.066;2022-11-15T05:28:32;4.63;;;4.10;;
40995;SDS011;26723;57.478;12.066;2022-11-15T05:31:59;4.90;;;4.03;;
40995;SDS011;26723;57.478;12.066;2022-11-15T05:35:28;4.93;;;4.40;;
40995;SDS011;26723;57.478;12.066;2022-11-15T05:38:57;4.40;;;3.93;;
40995;SDS011;26723;57.478;12.066;2022-11-15T05:42:24;4.93;;;3.67;;
40995;SDS011;26723;57.478;12.066;2022-11-15T05:45:55;4.00;;;3.60;;
40995;SDS011;26723;57.478;12.066;2022-11-15T05:49:24;4.03;;;3.63;;
40995;SDS011;26723;57.478;12.066;2022-11-15T05:52:53;4.40;;;4.00;;
40995;SDS011;26723;57.478;12.066;2022-11-15T05:56:28;5.20;;;4.10;;
40995;SDS011;26723;57.478;12.066;2022-11-15T05:59:56;4.63;;;3.83;;
40995;SDS011;26723;57.478;12.066;2022-11-15T06:03:24;5.00;;;4.00;;
40995;SDS011;26723;57.478;12.066;2022-11-15T06:06:51;4.93;;;3.77;;
40995;SDS011;26723;57.478;12.066;2022-11-15T06:10:18;4.63;;;3.93;;
40995;SDS011;26723;57.478;12.066;2022-11-15T06:13:45;4.83;;;4.07;;
40995;SDS011;26723;57.478;12.066;2022-11-15T06:17:12;3.90;;;3.50;;
40995;SDS011;26723;57.478;12.066;2022-11-15T06:20:41;4.40;;;3.93;;
40995;SDS011;26723;57.478;12.066;2022-11-15T06:24:08;4.93;;;3.90;;
40995;SDS011;26723;57.478;12.066;2022-11-15T06:27:34;5.77;;;4.63;;
40995;SDS011;26723;57.478;12.066;2022-11-15T06:31:04;4.43;;;3.87;;
40995;SDS011;26723;57.478;12.066;2022-11-15T06:34:33;4.70;;;3.93;;
40995;SDS011;26723;57.478;12.066;2022-11-15T06:38:05;4.67;;;4.10;;
40995;SDS011;26723;57.478;12.066;2022-11-15T06:41:34;4.27;;;3.63;;
40995;SDS011;26723;57.478;12.066;2022-11-15T06:45:01;6.07;;;4.50;;
40995;SDS011;26723;57.478;12.066;2022-11-15T06:48:28;4.43;;;3.97;;
40995;SDS011;26723;57.478;12.066;2022-11-15T06:51:56;4.00;;;3.60;;
40995;SDS011;26723;57.478;12.066;2022-11-15T06:55:24;3.93;;;3.17;;
40995;SDS011;26723;57.478;12.066;2022-11-15T06:58:51;5.93;;;4.00;;
40995;SDS011;26723;57.478;12.066;2022-11-15T07:02:18;6.37;;;4.20;;
40995;SDS011;26723;57.478;12.066;2022-11-15T07:05:50;6.50;;;4.80;;
40995;SDS011;26723;57.478;12.066;2022-11-15T07:09:18;5.37;;;4.10;;
40995;SDS011;26723;57.478;12.066;2022-11-15T07:12:47;5.47;;;4.07;;
40995;SDS011;26723;57.478;12.066;2022-11-15T07:16:15;4.73;;;3.77;;
40995;SDS011;26723;57.478;12.066;2022-11-15T07:19:42;7.07;;;4.27;;
40995;SDS011;26723;57.478;12.066;2022-11-15T07:23:08;4.83;;;4.33;;
40995;SDS011;26723;57.478;12.066;2022-11-15T07:26:35;5.43;;;4.07;;
40995;SDS011;26723;57.478;12.066;2022-11-15T07:30:04;4.80;;;3.87;;
40995;SDS011;26723;57.478;12.066;2022-11-15T07:33:32;6.20;;;4.23;;
40995;SDS011;26723;57.478;12.066;2022-11-15T07:36:59;5.23;;;4.00;;
40995;SDS011;26723;57.478;12.066;2022-11-15T07:40:27;4.67;;;3.87;;
40995;SDS011;26723;57.478;12.066;2022-11-15T07:43:55;5.47;;;4.20;;
40995;SDS011;26723;57.478;12.066;2022-11-15T07:47:23;5.53;;;4.43;;
40995;SDS011;26723;57.478;12.066;2022-11-15T07:50:50;4.27;;;3.70;;
40995;SDS011;26723;57.478;12.066;2022-11-15T07:54:17;5.17;;;3.93;;
40995;SDS011;26723;57.478;12.066;2022-11-15T07:57:43;5.10;;;4.03;;
40995;SDS011;26723;57.478;12.066;2022-11-15T08:01:10;4.73;;;3.93;;
40995;SDS011;26723;57.478;12.066;2022-11-15T08:04:39;4.27;;;3.87;;
40995;SDS011;26723;57.478;12.066;2022-11-15T08:08:06;5.03;;;3.77;;
40995;SDS011;26723;57.478;12.066;2022-11-15T08:11:34;5.30;;;4.13;;
40995;SDS011;26723;57.478;12.066;2022-11-15T08:15:01;5.93;;;4.00;;
40995;SDS011;26723;57.478;12.066;2022-11-15T08:18:28;4.43;;;3.70;;
40995;SDS011;26723;57.478;12.066;2022-11-15T08:21:56;5.77;;;4.13;;
40995;SDS011;26723;57.478;12.066;2022-11-15T08:25:22;4.57;;;4.10;;
40995;SDS011;26723;57.478;12.066;2022-11-15T08:28:51;4.97;;;4.03;;
40995;SDS011;26723;57.478;12.066;2022-11-15T08:32:18;4.53;;;4.07;;
40995;SDS011;26723;57.478;12.066;2022-11-15T08:35:45;4.60;;;3.80;;
40995;SDS011;26723;57.478;12.066;2022-11-15T08:39:13;5.03;;;3.83;;
40995;SDS011;26723;57.478;12.066;2022-11-15T08:42:40;4.30;;;3.80;;
40995;SDS011;26723;57.478;12.066;2022-11-15T08:46:07;4.67;;;3.70;;
40995;SDS011;26723;57.478;12.066;2022-11-15T08:49:37;4.33;;;3.47;;
40995;SDS011;26723;57.478;12.066;2022-11-15T08:53:04;4.03;;;3.50;;
40995;SDS011;26723;57.478;12.066;2022-11-15T08:56:33;3.97;;;3.50;;
40995;SDS011;26723;57.478;12.066;2022-11-15T08:59:59;3.63;;;3.33;;
40995;SDS011;26723;57.478;12.066;2022-11-15T09:03:27;4.20;;;3.40;;
40995;SDS011;26723;57.478;12.066;2022-11-15T09:06:54;4.03;;;3.63;;
40995;SDS011;26723;57.478;12.066;2022-11-15T09:10:21;3.37;;;3.07;;
40995;SDS011;26723;57.478;12.066;2022-11-15T09:13:50;4.90;;;3.57;;
40995;SDS011;26723;57.478;12.066;2022-11-15T09:17:17;4.93;;;3.53;;
40995;SDS011;26723;57.478;12.066;2022-11-15T09:20:48;4.00;;;3.60;;
40995;SDS011;26723;57.478;12.066;2022-11-15T09:24:15;3.80;;;3.40;;
40995;SDS011;26723;57.478;12.066;2022-11-15T09:27:42;3.70;;;3.03;;
40995;SDS011;26723;57.478;12.066;2022-11-15T09:31:10;4.97;;;3.43;;
40995;SDS011;26723;57.478;12.066;2022-11-15T09:34:43;3.43;;;3.13;;
40995;SDS011;26723;57.478;12.066;2022-11-15T09:38:10;3.97;;;3.10;;
40995;SDS011;26723;57.478;12.066;2022-11-15T09:41:58;3.53;;;3.03;;
40995;SDS011;26723;57.478;12.066;2022-11-15T09:45:47;3.17;;;2.87;;
40995;SDS011;26723;57.478;12.066;2022-11-15T09:49:27;3.73;;;2.90;;
40995;SDS011;26723;57.478;12.066;2022-11-15T09:52:48;2.87;;;2.67;;
40995;SDS011;26723;57.478;12.066;2022-11-15T09:55:58;3.00;;;2.63;;
40995;SDS011;26723;57.478;12.066;2022-11-15T09:59:13;5.10;;;2.67;;
40995;SDS011;26723;57.478;12.066;2022-11-15T10:02:33;3.50;;;2.90;;
40995;SDS011;26723;57.478;12.066;2022-11-15T10:05:53;3.17;;;2.70;;
40995;SDS011;26723;57.478;12.066;2022-11-15T10:09:05;3.27;;;2.97;;
40995;SDS011;26723;57.478;12.066;2022-11-15T10:12:20;2.53;;;2.33;;
40995;SDS011;26723;57.478;12.066;2022-11-15T10:15:29;2.60;;;2.40;;
40995;SDS011;26723;57.478;12.066;2022-11-15T10:18:41;2.80;;;2.60;;
40995;SDS011;26723;57.478;12.066;2022-11-15T10:22:08;2.67;;;2.43;;
40995;SDS011;26723;57.478;12.066;2022-11-15T10:25:27;2.80;;;2.50;;
40995;SDS011;26723;57.478;12.066;2022-11-15T10:28:36;2.70;;;2.50;;
40995;SDS011;26723;57.478;12.066;2022-11-15T10:31:45;3.10;;;2.60;;
40995;SDS011;26723;57.478;12.066;2022-11-15T10:34:53;3.80;;;3.03;;
40995;SDS011;26723;57.478;12.066;2022-11-15T10:38:06;3.03;;;2.70;;
40995;SDS011;26723;57.478;12.066;2022-11-15T10:41:16;3.07;;;2.87;;
40995;SDS011;26723;57.478;12.066;2022-11-15T10:44:26;3.73;;;2.70;;
40995;SDS011;26723;57.478;12.066;2022-11-15T10:47:37;2.77;;;2.57;;
40995;SDS011;26723;57.478;12.066;2022-11-15T10:50:46;3.17;;;2.87;;
40995;SDS011;26723;57.478;12.066;2022-11-15T10:53:57;3.47;;;2.70;;
40995;SDS011;26723;57.478;12.066;2022-11-15T10:57:08;2.80;;;2.60;;
40995;SDS011;26723;57.478;12.066;2022-11-15T11:00:36;2.80;;;2.60;;
40995;SDS011;26723;57.478;12.066;2022-11-15T11:03:57;2.87;;;2.67;;
40995;SDS011;26723;57.478;12.066;2022-11-15T11:07:08;3.07;;;2.77;;
40995;SDS011;26723;57.478;12.066;2022-11-15T11:10:30;2.93;;;2.73;;
40995;SDS011;26723;57.478;12.066;2022-11-15T11:13:59;3.60;;;2.80;;
40995;SDS011;26723;57.478;12.066;2022-11-15T11:17:21;3.00;;;2.57;;
40995;SDS011;26723;57.478;12.066;2022-11-15T11:20:38;3.43;;;3.10;;
40995;SDS011;26723;57.478;12.066;2022-11-15T11:23:53;2.63;;;2.40;;
40995;SDS011;26723;57.478;12.066;2022-11-15T11:27:17;2.87;;;2.50;;
40995;SDS011;26723;57.478;12.066;2022-11-15T11:30:38;2.33;;;2.13;;
40995;SDS011;26723;57.478;12.066;2022-11-15T11:33:57;2.63;;;2.43;;
40995;SDS011;26723;57.478;12.066;2022-11-15T11:37:12;2.80;;;2.60;;
40995;SDS011;26723;57.478;12.066;2022-11-15T11:40:29;3.00;;;2.70;;
40995;SDS011;26723;57.478;12.066;2022-11-15T11:43:45;2.90;;;2.40;;
40995;SDS011;26723;57.478;12.066;2022-11-15T11:47:03;2.80;;;2.60;;
40995;SDS011;26723;57.478;12.066;2022-11-15T11:50:18;2.50;;;2.30;;
40995;SDS011;26723;57.478;12.066;2022-11-15T11:53:28;2.73;;;2.53;;
40995;SDS011;26723;57.478;12.066;2022-11-15T11:56:43;2.97;;;2.77;;
40995;SDS011;26723;57.478;12.066;2022-11-15T11:59:55;2.63;;;2.43;;
40995;SDS011;26723;57.478;12.066;2022-11-15T12:03:19;2.60;;;2.40;;
40995;SDS011;26723;57.478;12.066;2022-11-15T12:06:33;2.20;;;2.10;;
40995;SDS011;26723;57.478;12.066;2022-11-15T12:09:50;3.10;;;2.20;;
40995;SDS011;26723;57.478;12.066;2022-11-15T12:13:04;1.90;;;1.80;;
40995;SDS011;26723;57.478;12.066;2022-11-15T12:16:18;2.13;;;1.93;;
40995;SDS011;26723;57.478;12.066;2022-11-15T12:19:29;1.70;;;1.60;;
40995;SDS011;26723;57.478;12.066;2022-11-15T12:22:38;2.00;;;1.80;;
40995;SDS011;26723;57.478;12.066;2022-11-15T12:25:51;1.90;;;1.80;;
40995;SDS011;26723;57.478;12.066;2022-11-15T12:29:05;1.70;;;1.60;;
40995;SDS011;26723;57.478;12.066;2022-11-15T12:32:25;1.70;;;1.60;;
40995;SDS011;26723;57.478;12.066;2022-11-15T12:35:38;2.20;;;2.00;;
40995;SDS011;26723;57.478;12.066;2022-11-15T12:38:50;1.70;;;1.60;;
40995;SDS011;26723;57.478;12.066;2022-11-15T12:45:47;1.50;;;1.40;;
40995;SDS011;26723;57.478;12.066;2022-11-15T12:48:57;1.40;;;1.30;;
40995;SDS011;26723;57.478;12.066;2022-11-15T12:52:07;1.47;;;1.37;;
40995;SDS011;26723;57.478;12.066;2022-11-15T12:55:29;1.53;;;1.10;;
40995;SDS011;26723;57.478;12.066;2022-11-15T12:58:41;1.50;;;1.40;;
40995;SDS011;26723;57.478;12.066;2022-11-15T13:01:55;1.40;;;1.30;;
40995;SDS011;26723;57.478;12.066;2022-11-15T13:13:02;1.37;;;1.03;;
40995;SDS011;26723;57.478;12.066;2022-11-15T13:16:12;0.83;;;0.83;;
40995;SDS011;26723;57.478;12.066;2022-11-15T13:19:27;1.20;;;1.10;;
40995;SDS011;26723;57.478;12.066;2022-11-15T13:22:41;1.00;;;0.87;;
40995;SDS011;26723;57.478;12.066;2022-11-15T13:26:09;1.10;;;1.10;;
40995;SDS011;26723;57.478;12.066;2022-11-15T13:29:20;1.60;;;1.20;;
40995;SDS011;26723;57.478;12.066;2022-11-15T13:32:28;0.97;;;0.97;;
40995;SDS011;26723;57.478;12.066;2022-11-15T13:35:38;0.70;;;0.70;;
40995;SDS011;26723;57.478;12.066;2022-11-15T13:38:56;1.00;;;1.00;;
40995;SDS011;26723;57.478;12.066;2022-11-15T13:42:13;1.20;;;1.10;;
40995;SDS011;26723;57.478;12.066;2022-11-15T13:45:23;0.73;;;0.73;;
40995;SDS011;26723;57.478;12.066;2022-11-15T13:48:32;0.87;;;0.87;;
40995;SDS011;26723;57.478;12.066;2022-11-15T13:51:42;0.87;;;0.87;;
40995;SDS011;26723;57.478;12.066;2022-11-15T13:54:56;0.60;;;0.60;;
40995;SDS011;26723;57.478;12.066;2022-11-15T13:58:08;0.63;;;0.63;;
40995;SDS011;26723;57.478;12.066;2022-11-15T14:01:20;0.50;;;0.50;;
40995;SDS011;26723;57.478;12.066;2022-11-15T14:04:30;0.70;;;0.70;;
40995;SDS011;26723;57.478;12.066;2022-11-15T14:07:41;0.70;;;0.70;;
40995;SDS011;26723;57.478;12.066;2022-11-15T14:11:09;1.10;;;1.00;;
40995;SDS011;26723;57.478;12.066;2022-11-15T14:14:22;0.80;;;0.80;;
40995;SDS011;26723;57.478;12.066;2022-11-15T14:17:36;0.90;;;0.90;;
40995;SDS011;26723;57.478;12.066;2022-11-15T14:21:05;1.20;;;1.10;;
40995;SDS011;26723;57.478;12.066;2022-11-15T14:24:14;0.73;;;0.73;;
40995;SDS011;26723;57.478;12.066;2022-11-15T14:27:25;0.50;;;0.50;;
40995;SDS011;26723;57.478;12.066;2022-11-15T14:30:35;0.50;;;0.50;;
40995;SDS011;26723;57.478;12.066;2022-11-15T14:33:44;0.50;;;0.50;;
40995;SDS011;26723;57.478;12.066;2022-11-15T14:36:52;0.43;;;0.43;;
40995;SDS011;26723;57.478;12.066;2022-11-15T14:40:01;0.70;;;0.70;;
40995;SDS011;26723;57.478;12.066;2022-11-15T14:43:11;0.50;;;0.50;;
40995;SDS011;26723;57.478;12.066;2022-11-15T14:46:20;0.30;;;0.30;;
40995;SDS011;26723;57.478;12.066;2022-11-15T14:49:29;0.37;;;0.30;;
40995;SDS011;26723;57.478;12.066;2022-11-15T14:52:37;0.50;;;0.50;;
40995;SDS011;26723;57.478;12.066;2022-11-15T14:55:45;0.53;;;0.40;;
40995;SDS011;26723;57.478;12.066;2022-11-15T14:58:55;0.30;;;0.30;;
40995;SDS011;26723;57.478;12.066;2022-11-15T15:02:08;0.33;;;0.30;;
40995;SDS011;26723;57.478;12.066;2022-11-15T15:05:23;0.47;;;0.47;;
40995;SDS011;26723;57.478;12.066;2022-11-15T15:08:32;0.50;;;0.50;;
40995;SDS011;26723;57.478;12.066;2022-11-15T15:11:41;0.40;;;0.40;;
40995;SDS011;26723;57.478;12.066;2022-11-15T15:14:50;1.60;;;0.37;;
40995;SDS011;26723;57.478;12.066;2022-11-15T15:17:59;0.70;;;0.40;;
40995;SDS011;26723;57.478;12.066;2022-11-15T15:21:12;0.40;;;0.40;;
40995;SDS011;26723;57.478;12.066;2022-11-15T15:24:26;0.50;;;0.50;;
40995;SDS011;26723;57.478;12.066;2022-11-15T15:27:34;0.37;;;0.37;;
40995;SDS011;26723;57.478;12.066;2022-11-15T15:30:44;0.50;;;0.20;;
40995;SDS011;26723;57.478;12.066;2022-11-15T15:33:53;0.17;;;0.17;;
40995;SDS011;26723;57.478;12.066;2022-11-15T15:37:18;0.33;;;0.27;;
40995;SDS011;26723;57.478;12.066;2022-11-15T15:40:31;0.60;;;0.50;;
40995;SDS011;26723;57.478;12.066;2022-11-15T15:43:40;0.30;;;0.30;;
40995;SDS011;26723;57.478;12.066;2022-11-15T15:46:50;0.23;;;0.23;;
40995;SDS011;26723;57.478;12.066;2022-11-15T15:49:59;0.27;;;0.27;;
40995;SDS011;26723;57.478;12.066;2022-11-15T15:53:07;1.03;;;0.30;;
40995;SDS011;26723;57.478;12.066;2022-11-15T15:56:16;0.20;;;0.20;;
40995;SDS011;26723;57.478;12.066;2022-11-15T15:59:25;0.20;;;0.20;;
40995;SDS011;26723;57.478;12.066;2022-11-15T16:02:34;0.10;;;0.10;;
40995;SDS011;26723;57.478;12.066;2022-11-15T16:05:46;0.20;;;0.20;;
40995;SDS011;26723;57.478;12.066;2022-11-15T16:08:54;0.23;;;0.23;;
40995;SDS011;26723;57.478;12.066;2022-11-15T16:12:20;0.20;;;0.20;;
40995;SDS011;26723;57.478;12.066;2022-11-15T16:15:29;0.60;;;0.27;;
40995;SDS011;26723;57.478;12.066;2022-11-15T16:18:40;0.20;;;0.20;;
40995;SDS011;26723;57.478;12.066;2022-11-15T16:21:49;0.10;;;0.10;;
40995;SDS011;26723;57.478;12.066;2022-11-15T16:24:58;0.43;;;0.20;;
40995;SDS011;26723;57.478;12.066;2022-11-15T16:28:11;0.73;;;0.30;;
40995;SDS011;26723;57.478;12.066;2022-11-15T16:31:23;0.10;;;0.10;;
40995;SDS011;26723;57.478;12.066;2022-11-15T16:34:33;0.30;;;0.30;;
40995;SDS011;26723;57.478;12.066;2022-11-15T16:37:48;0.10;;;0.10;;
40995;SDS011;26723;57.478;12.066;2022-11-15T16:40:56;0.30;;;0.30;;
40995;SDS011;26723;57.478;12.066;2022-11-15T16:44:05;0.10;;;0.10;;
40995;SDS011;26723;57.478;12.066;2022-11-15T16:47:15;0.20;;;0.20;;
40995;SDS011;26723;57.478;12.066;2022-11-15T16:50:27;0.10;;;0.10;;
40995;SDS011;26723;57.478;12.066;2022-11-15T16:53:36;0.00;;;0.00;;
40995;SDS011;26723;57.478;12.066;2022-11-15T16:56:44;0.20;;;0.20;;
40995;SDS011;26723;57.478;12.066;2022-11-15T16:59:53;0.30;;;0.30;;
40995;SDS011;26723;57.478;12.066;2022-11-15T17:03:02;0.00;;;0.00;;
40995;SDS011;26723;57.478;12.066;2022-11-15T17:06:13;0.20;;;0.20;;
40995;SDS011;26723;57.478;12.066;2022-11-15T17:09:23;0.30;;;0.20;;
40995;SDS011;26723;57.478;12.066;2022-11-15T17:12:32;0.53;;;0.20;;
40995;SDS011;26723;57.478;12.066;2022-11-15T17:15:40;0.30;;;0.20;;
40995;SDS011;26723;57.478;12.066;2022-11-15T17:18:49;0.50;;;0.27;;
40995;SDS011;26723;57.478;12.066;2022-11-15T17:22:00;0.70;;;0.50;;
40995;SDS011;26723;57.478;12.066;2022-11-15T17:25:08;0.20;;;0.20;;
40995;SDS011;26723;57.478;12.066;2022-11-15T17:28:17;1.00;;;0.50;;
40995;SDS011;26723;57.478;12.066;2022-11-15T17:31:25;2.17;;;0.50;;
40995;SDS011;26723;57.478;12.066;2022-11-15T17:34:36;2.20;;;0.43;;
40995;SDS011;26723;57.478;12.066;2022-11-15T17:37:45;1.10;;;0.47;;
40995;SDS011;26723;57.478;12.066;2022-11-15T17:41:00;0.47;;;0.20;;
40995;SDS011;26723;57.478;12.066;2022-11-15T17:44:09;0.93;;;0.30;;
40995;SDS011;26723;57.478;12.066;2022-11-15T17:47:18;0.40;;;0.30;;
40995;SDS011;26723;57.478;12.066;2022-11-15T17:50:27;1.90;;;0.37;;
40995;SDS011;26723;57.478;12.066;2022-11-15T17:53:37;0.37;;;0.37;;
40995;SDS011;26723;57.478;12.066;2022-11-15T17:56:47;0.33;;;0.33;;
40995;SDS011;26723;57.478;12.066;2022-11-15T17:59:56;0.67;;;0.20;;
40995;SDS011;26723;57.478;12.066;2022-11-15T18:03:04;0.67;;;0.30;;
40995;SDS011;26723;57.478;12.066;2022-11-15T18:06:15;0.20;;;0.20;;
40995;SDS011;26723;57.478;12.066;2022-11-15T18:09:26;0.57;;;0.30;;
40995;SDS011;26723;57.478;12.066;2022-11-15T18:12:35;0.40;;;0.40;;
40995;SDS011;26723;57.478;12.066;2022-11-15T18:15:48;1.50;;;0.30;;
40995;SDS011;26723;57.478;12.066;2022-11-15T18:19:00;0.83;;;0.40;;
40995;SDS011;26723;57.478;12.066;2022-11-15T18:22:14;0.33;;;0.33;;
40995;SDS011;26723;57.478;12.066;2022-11-15T18:25:25;0.87;;;0.87;;
40995;SDS011;26723;57.478;12.066;2022-11-15T18:28:34;0.73;;;0.40;;
40995;SDS011;26723;57.478;12.066;2022-11-15T18:31:44;0.27;;;0.27;;
40995;SDS011;26723;57.478;12.066;2022-11-15T18:34:55;0.50;;;0.37;;
40995;SDS011;26723;57.478;12.066;2022-11-15T18:38:04;0.33;;;0.23;;
40995;SDS011;26723;57.478;12.066;2022-11-15T18:41:14;1.17;;;0.37;;
40995;SDS011;26723;57.478;12.066;2022-11-15T18:44:27;0.40;;;0.40;;
40995;SDS011;26723;57.478;12.066;2022-11-15T18:47:36;0.40;;;0.40;;
40995;SDS011;26723;57.478;12.066;2022-11-15T18:50:45;0.73;;;0.47;;
40995;SDS011;26723;57.478;12.066;2022-11-15T18:53:59;0.87;;;0.40;;
40995;SDS011;26723;57.478;12.066;2022-11-15T18:57:09;1.00;;;0.57;;
40995;SDS011;26723;57.478;12.066;2022-11-15T19:00:18;0.43;;;0.43;;
40995;SDS011;26723;57.478;12.066;2022-11-15T19:03:29;0.30;;;0.30;;
40995;SDS011;26723;57.478;12.066;2022-11-15T19:06:40;0.43;;;0.43;;
40995;SDS011;26723;57.478;12.066;2022-11-15T19:09:49;1.07;;;0.70;;
40995;SDS011;26723;57.478;12.066;2022-11-15T19:12:59;0.53;;;0.37;;
40995;SDS011;26723;57.478;12.066;2022-11-15T19:16:08;1.60;;;0.40;;
40995;SDS011;26723;57.478;12.066;2022-11-15T19:19:18;0.40;;;0.20;;
40995;SDS011;26723;57.478;12.066;2022-11-15T19:22:28;0.40;;;0.40;;
40995;SDS011;26723;57.478;12.066;2022-11-15T19:25:37;0.17;;;0.17;;
40995;SDS011;26723;57.478;12.066;2022-11-15T19:28:49;0.40;;;0.40;;
40995;SDS011;26723;57.478;12.066;2022-11-15T19:31:58;0.30;;;0.30;;
40995;SDS011;26723;57.478;12.066;2022-11-15T19:35:06;0.30;;;0.30;;
40995;SDS011;26723;57.478;12.066;2022-11-15T19:38:15;0.73;;;0.50;;
40995;SDS011;26723;57.478;12.066;2022-11-15T19:41:24;1.40;;;0.53;;
40995;SDS011;26723;57.478;12.066;2022-11-15T19:44:34;0.43;;;0.40;;
40995;SDS011;26723;57.478;12.066;2022-11-15T19:47:42;0.77;;;0.30;;
40995;SDS011;26723;57.478;12.066;2022-11-15T19:50:51;1.50;;;0.33;;
40995;SDS011;26723;57.478;12.066;2022-11-15T19:54:00;2.13;;;0.20;;
40995;SDS011;26723;57.478;12.066;2022-11-15T19:57:12;0.30;;;0.30;;
40995;SDS011;26723;57.478;12.066;2022-11-15T20:00:22;0.73;;;0.20;;
40995;SDS011;26723;57.478;12.066;2022-11-15T20:03:31;0.47;;;0.37;;